sensor_id;sensor_type;location;lat;lon;timestamp;P1;durP1;ratioP1;P2;durP2;ratioP2
33246;SDS011;19606;50.108;19.804;2023-02-19T00:01:10;8.82;;;5.45;;
33246;SDS011;19606;50.108;19.804;2023-02-19T00:03:38;7.15;;;2.97;;
33246;SDS011;19606;50.108;19.804;2023-02-19T00:06:05;8.15;;;4.20;;
33246;SDS011;19606;50.108;19.804;2023-02-19T00:08:33;6.05;;;3.72;;
33246;SDS011;19606;50.108;19.804;2023-02-19T00:11:03;4.47;;;3.45;;
33246;SDS011;19606;50.108;19.804;2023-02-19T00:16:04;4.15;;;2.28;;
33246;SDS011;19606;50.108;19.804;2023-02-19T00:18:49;4.88;;;3.30;;
33246;SDS011;19606;50.108;19.804;2023-02-19T00:21:16;3.72;;;2.63;;
33246;SDS011;19606;50.108;19.804;2023-02-19T00:23:42;6.35;;;3.15;;
33246;SDS011;19606;50.108;19.804;2023-02-19T00:26:09;6.03;;;3.13;;
33246;SDS011;19606;50.108;19.804;2023-02-19T00:28:36;5.93;;;3.00;;
33246;SDS011;19606;50.108;19.804;2023-02-19T00:31:03;4.82;;;2.85;;
33246;SDS011;19606;50.108;19.804;2023-02-19T00:33:33;6.13;;;3.45;;
33246;SDS011;19606;50.108;19.804;2023-02-19T00:36:02;6.00;;;2.25;;
33246;SDS011;19606;50.108;19.804;2023-02-19T00:38:29;4.63;;;3.08;;
33246;SDS011;19606;50.108;19.804;2023-02-19T00:40:55;5.10;;;3.80;;
33246;SDS011;19606;50.108;19.804;2023-02-19T00:43:24;6.35;;;3.03;;
33246;SDS011;19606;50.108;19.804;2023-02-19T00:45:49;4.63;;;3.17;;
33246;SDS011;19606;50.108;19.804;2023-02-19T00:48:15;4.97;;;3.20;;
33246;SDS011;19606;50.108;19.804;2023-02-19T00:50:40;6.28;;;3.17;;
33246;SDS011;19606;50.108;19.804;2023-02-19T00:53:06;5.88;;;3.03;;
33246;SDS011;19606;50.108;19.804;2023-02-19T00:55:32;4.97;;;3.10;;
33246;SDS011;19606;50.108;19.804;2023-02-19T00:57:57;4.40;;;2.83;;
33246;SDS011;19606;50.108;19.804;2023-02-19T01:00:23;6.57;;;3.33;;
33246;SDS011;19606;50.108;19.804;2023-02-19T01:02:49;4.75;;;2.70;;
33246;SDS011;19606;50.108;19.804;2023-02-19T01:05:14;4.75;;;2.78;;
33246;SDS011;19606;50.108;19.804;2023-02-19T01:07:40;4.35;;;2.88;;
33246;SDS011;19606;50.108;19.804;2023-02-19T01:10:06;3.60;;;2.75;;
33246;SDS011;19606;50.108;19.804;2023-02-19T01:12:32;4.07;;;2.72;;
33246;SDS011;19606;50.108;19.804;2023-02-19T01:14:57;4.68;;;2.67;;
33246;SDS011;19606;50.108;19.804;2023-02-19T01:17:23;3.78;;;1.80;;
33246;SDS011;19606;50.108;19.804;2023-02-19T01:19:49;2.70;;;1.90;;
33246;SDS011;19606;50.108;19.804;2023-02-19T01:22:14;4.28;;;2.47;;
33246;SDS011;19606;50.108;19.804;2023-02-19T01:24:40;3.88;;;2.88;;
33246;SDS011;19606;50.108;19.804;2023-02-19T01:27:05;5.72;;;2.72;;
33246;SDS011;19606;50.108;19.804;2023-02-19T01:29:31;3.28;;;2.33;;
33246;SDS011;19606;50.108;19.804;2023-02-19T01:31:57;2.42;;;1.83;;
33246;SDS011;19606;50.108;19.804;2023-02-19T01:34:23;4.70;;;2.40;;
33246;SDS011;19606;50.108;19.804;2023-02-19T01:36:48;5.97;;;3.42;;
33246;SDS011;19606;50.108;19.804;2023-02-19T01:39:14;7.05;;;3.45;;
33246;SDS011;19606;50.108;19.804;2023-02-19T01:41:40;5.40;;;3.33;;
33246;SDS011;19606;50.108;19.804;2023-02-19T01:46:51;5.72;;;3.47;;
33246;SDS011;19606;50.108;19.804;2023-02-19T01:49:28;4.90;;;3.85;;
33246;SDS011;19606;50.108;19.804;2023-02-19T01:52:03;3.78;;;2.55;;
33246;SDS011;19606;50.108;19.804;2023-02-19T01:54:36;6.88;;;3.88;;
33246;SDS011;19606;50.108;19.804;2023-02-19T01:57:05;4.85;;;3.38;;
33246;SDS011;19606;50.108;19.804;2023-02-19T01:59:35;7.38;;;4.25;;
33246;SDS011;19606;50.108;19.804;2023-02-19T02:02:02;5.38;;;3.33;;
33246;SDS011;19606;50.108;19.804;2023-02-19T02:04:29;6.25;;;2.58;;
33246;SDS011;19606;50.108;19.804;2023-02-19T02:06:57;5.70;;;3.53;;
33246;SDS011;19606;50.108;19.804;2023-02-19T02:09:26;5.90;;;3.05;;
33246;SDS011;19606;50.108;19.804;2023-02-19T02:12:11;6.25;;;3.88;;
33246;SDS011;19606;50.108;19.804;2023-02-19T02:14:39;4.15;;;2.85;;
33246;SDS011;19606;50.108;19.804;2023-02-19T02:22:40;5.82;;;3.95;;
33246;SDS011;19606;50.108;19.804;2023-02-19T02:33:16;4.40;;;3.17;;
33246;SDS011;19606;50.108;19.804;2023-02-19T02:35:54;5.38;;;4.00;;
33246;SDS011;19606;50.108;19.804;2023-02-19T02:38:24;5.47;;;3.60;;
33246;SDS011;19606;50.108;19.804;2023-02-19T02:40:53;6.93;;;2.67;;
33246;SDS011;19606;50.108;19.804;2023-02-19T02:43:20;7.55;;;3.13;;
33246;SDS011;19606;50.108;19.804;2023-02-19T02:45:45;5.22;;;2.45;;
33246;SDS011;19606;50.108;19.804;2023-02-19T02:53:16;6.60;;;3.53;;
33246;SDS011;19606;50.108;19.804;2023-02-19T02:56:20;6.15;;;3.80;;
33246;SDS011;19606;50.108;19.804;2023-02-19T02:58:47;5.10;;;3.55;;
33246;SDS011;19606;50.108;19.804;2023-02-19T03:01:19;5.00;;;2.67;;
33246;SDS011;19606;50.108;19.804;2023-02-19T03:04:13;5.55;;;3.22;;
33246;SDS011;19606;50.108;19.804;2023-02-19T03:06:47;5.78;;;3.97;;
33246;SDS011;19606;50.108;19.804;2023-02-19T03:09:17;5.65;;;3.03;;
33246;SDS011;19606;50.108;19.804;2023-02-19T03:11:48;6.22;;;4.00;;
33246;SDS011;19606;50.108;19.804;2023-02-19T03:14:40;4.70;;;3.42;;
33246;SDS011;19606;50.108;19.804;2023-02-19T03:20:52;6.10;;;4.55;;
33246;SDS011;19606;50.108;19.804;2023-02-19T03:23:20;8.15;;;5.28;;
33246;SDS011;19606;50.108;19.804;2023-02-19T03:26:10;8.05;;;5.30;;
33246;SDS011;19606;50.108;19.804;2023-02-19T03:28:37;8.45;;;5.10;;
33246;SDS011;19606;50.108;19.804;2023-02-19T03:31:23;9.88;;;5.90;;
33246;SDS011;19606;50.108;19.804;2023-02-19T03:33:53;9.23;;;6.30;;
33246;SDS011;19606;50.108;19.804;2023-02-19T03:36:22;9.60;;;7.00;;
33246;SDS011;19606;50.108;19.804;2023-02-19T03:41:32;11.52;;;5.22;;
33246;SDS011;19606;50.108;19.804;2023-02-19T03:44:13;8.25;;;5.55;;
33246;SDS011;19606;50.108;19.804;2023-02-19T03:57:25;8.45;;;4.70;;
33246;SDS011;19606;50.108;19.804;2023-02-19T04:02:37;6.03;;;4.38;;
33246;SDS011;19606;50.108;19.804;2023-02-19T04:05:09;6.03;;;4.50;;
33246;SDS011;19606;50.108;19.804;2023-02-19T04:07:48;6.32;;;4.68;;
33246;SDS011;19606;50.108;19.804;2023-02-19T04:10:17;8.50;;;4.68;;
33246;SDS011;19606;50.108;19.804;2023-02-19T04:12:49;3.90;;;3.28;;
33246;SDS011;19606;50.108;19.804;2023-02-19T04:15:21;6.22;;;3.83;;
33246;SDS011;19606;50.108;19.804;2023-02-19T04:17:56;6.88;;;3.75;;
33246;SDS011;19606;50.108;19.804;2023-02-19T04:20:35;6.18;;;4.22;;
33246;SDS011;19606;50.108;19.804;2023-02-19T04:23:04;6.70;;;4.90;;
33246;SDS011;19606;50.108;19.804;2023-02-19T04:25:31;5.57;;;4.47;;
33246;SDS011;19606;50.108;19.804;2023-02-19T04:27:58;9.13;;;5.38;;
33246;SDS011;19606;50.108;19.804;2023-02-19T04:30:24;5.55;;;4.40;;
33246;SDS011;19606;50.108;19.804;2023-02-19T04:32:49;5.10;;;4.50;;
33246;SDS011;19606;50.108;19.804;2023-02-19T04:35:15;8.65;;;5.20;;
33246;SDS011;19606;50.108;19.804;2023-02-19T04:37:40;5.97;;;4.38;;
33246;SDS011;19606;50.108;19.804;2023-02-19T04:40:06;6.25;;;4.50;;
33246;SDS011;19606;50.108;19.804;2023-02-19T04:42:33;7.57;;;4.75;;
33246;SDS011;19606;50.108;19.804;2023-02-19T04:44:58;6.57;;;4.30;;
33246;SDS011;19606;50.108;19.804;2023-02-19T04:47:24;5.32;;;3.85;;
33246;SDS011;19606;50.108;19.804;2023-02-19T04:49:50;6.13;;;4.70;;
33246;SDS011;19606;50.108;19.804;2023-02-19T04:52:15;7.45;;;5.05;;
33246;SDS011;19606;50.108;19.804;2023-02-19T04:54:41;7.00;;;3.80;;
33246;SDS011;19606;50.108;19.804;2023-02-19T04:57:07;8.23;;;5.40;;
33246;SDS011;19606;50.108;19.804;2023-02-19T04:59:32;6.13;;;4.55;;
33246;SDS011;19606;50.108;19.804;2023-02-19T05:01:58;7.03;;;5.22;;
33246;SDS011;19606;50.108;19.804;2023-02-19T05:04:24;6.18;;;3.83;;
33246;SDS011;19606;50.108;19.804;2023-02-19T05:06:49;6.97;;;4.20;;
33246;SDS011;19606;50.108;19.804;2023-02-19T05:09:15;7.65;;;5.13;;
33246;SDS011;19606;50.108;19.804;2023-02-19T05:11:41;9.10;;;5.13;;
33246;SDS011;19606;50.108;19.804;2023-02-19T05:14:06;6.47;;;4.78;;
33246;SDS011;19606;50.108;19.804;2023-02-19T05:16:32;6.38;;;4.47;;
33246;SDS011;19606;50.108;19.804;2023-02-19T05:18:58;5.43;;;4.60;;
33246;SDS011;19606;50.108;19.804;2023-02-19T05:21:26;5.43;;;3.95;;
33246;SDS011;19606;50.108;19.804;2023-02-19T05:23:52;5.22;;;3.95;;
33246;SDS011;19606;50.108;19.804;2023-02-19T05:26:19;5.22;;;3.78;;
33246;SDS011;19606;50.108;19.804;2023-02-19T05:28:47;3.72;;;2.85;;
33246;SDS011;19606;50.108;19.804;2023-02-19T05:31:16;3.20;;;2.72;;
33246;SDS011;19606;50.108;19.804;2023-02-19T05:33:43;4.15;;;3.03;;
33246;SDS011;19606;50.108;19.804;2023-02-19T05:36:12;4.22;;;2.90;;
33246;SDS011;19606;50.108;19.804;2023-02-19T05:38:38;5.05;;;3.15;;
33246;SDS011;19606;50.108;19.804;2023-02-19T05:41:14;3.80;;;2.70;;
33246;SDS011;19606;50.108;19.804;2023-02-19T05:43:43;4.60;;;3.78;;
33246;SDS011;19606;50.108;19.804;2023-02-19T05:46:11;4.60;;;3.42;;
33246;SDS011;19606;50.108;19.804;2023-02-19T05:48:38;4.35;;;2.83;;
33246;SDS011;19606;50.108;19.804;2023-02-19T05:51:05;3.83;;;3.42;;
33246;SDS011;19606;50.108;19.804;2023-02-19T05:53:32;5.50;;;2.70;;
33246;SDS011;19606;50.108;19.804;2023-02-19T05:55:58;5.18;;;2.83;;
33246;SDS011;19606;50.108;19.804;2023-02-19T05:58:24;5.20;;;3.17;;
33246;SDS011;19606;50.108;19.804;2023-02-19T06:00:50;3.97;;;2.88;;
33246;SDS011;19606;50.108;19.804;2023-02-19T06:03:15;3.90;;;3.35;;
33246;SDS011;19606;50.108;19.804;2023-02-19T06:05:41;6.28;;;3.88;;
33246;SDS011;19606;50.108;19.804;2023-02-19T06:08:08;5.20;;;3.75;;
33246;SDS011;19606;50.108;19.804;2023-02-19T06:10:36;5.85;;;3.67;;
33246;SDS011;19606;50.108;19.804;2023-02-19T06:13:04;4.55;;;3.60;;
33246;SDS011;19606;50.108;19.804;2023-02-19T06:15:29;8.60;;;4.30;;
33246;SDS011;19606;50.108;19.804;2023-02-19T06:17:55;8.45;;;3.83;;
33246;SDS011;19606;50.108;19.804;2023-02-19T06:20:20;6.00;;;4.30;;
33246;SDS011;19606;50.108;19.804;2023-02-19T06:22:48;8.65;;;4.97;;
33246;SDS011;19606;50.108;19.804;2023-02-19T06:25:14;12.40;;;5.47;;
33246;SDS011;19606;50.108;19.804;2023-02-19T06:27:40;6.75;;;4.90;;
33246;SDS011;19606;50.108;19.804;2023-02-19T06:30:05;7.40;;;5.38;;
33246;SDS011;19606;50.108;19.804;2023-02-19T06:32:32;10.45;;;5.60;;
33246;SDS011;19606;50.108;19.804;2023-02-19T06:34:57;7.45;;;5.32;;
33246;SDS011;19606;50.108;19.804;2023-02-19T06:37:23;10.10;;;6.60;;
33246;SDS011;19606;50.108;19.804;2023-02-19T06:39:48;12.77;;;7.40;;
33246;SDS011;19606;50.108;19.804;2023-02-19T06:42:15;10.75;;;7.30;;
33246;SDS011;19606;50.108;19.804;2023-02-19T06:44:40;6.40;;;4.50;;
33246;SDS011;19606;50.108;19.804;2023-02-19T06:47:06;11.15;;;6.70;;
33246;SDS011;19606;50.108;19.804;2023-02-19T06:49:31;10.13;;;3.97;;
33246;SDS011;19606;50.108;19.804;2023-02-19T06:51:57;9.73;;;4.93;;
33246;SDS011;19606;50.108;19.804;2023-02-19T06:54:24;9.65;;;5.90;;
33246;SDS011;19606;50.108;19.804;2023-02-19T06:56:50;9.95;;;4.72;;
33246;SDS011;19606;50.108;19.804;2023-02-19T06:59:16;8.60;;;5.35;;
33246;SDS011;19606;50.108;19.804;2023-02-19T07:01:42;8.45;;;5.57;;
33246;SDS011;19606;50.108;19.804;2023-02-19T07:04:08;8.73;;;5.53;;
33246;SDS011;19606;50.108;19.804;2023-02-19T07:06:34;7.43;;;4.72;;
33246;SDS011;19606;50.108;19.804;2023-02-19T07:09:01;8.18;;;5.63;;
33246;SDS011;19606;50.108;19.804;2023-02-19T07:11:31;9.50;;;5.57;;
33246;SDS011;19606;50.108;19.804;2023-02-19T07:14:02;6.88;;;4.15;;
33246;SDS011;19606;50.108;19.804;2023-02-19T07:16:29;7.43;;;4.22;;
33246;SDS011;19606;50.108;19.804;2023-02-19T07:18:55;8.02;;;4.40;;
33246;SDS011;19606;50.108;19.804;2023-02-19T07:21:22;6.65;;;4.65;;
33246;SDS011;19606;50.108;19.804;2023-02-19T07:23:47;4.60;;;3.13;;
33246;SDS011;19606;50.108;19.804;2023-02-19T07:26:14;4.20;;;3.00;;
33246;SDS011;19606;50.108;19.804;2023-02-19T07:28:45;5.00;;;3.58;;
33246;SDS011;19606;50.108;19.804;2023-02-19T07:31:12;5.40;;;3.53;;
33246;SDS011;19606;50.108;19.804;2023-02-19T07:33:41;5.10;;;3.67;;
33246;SDS011;19606;50.108;19.804;2023-02-19T07:38:36;7.18;;;3.80;;
33246;SDS011;19606;50.108;19.804;2023-02-19T07:41:03;10.15;;;7.22;;
33246;SDS011;19606;50.108;19.804;2023-02-19T07:43:30;11.55;;;7.03;;
33246;SDS011;19606;50.108;19.804;2023-02-19T07:45:57;14.75;;;8.63;;
33246;SDS011;19606;50.108;19.804;2023-02-19T07:48:23;10.68;;;6.93;;
33246;SDS011;19606;50.108;19.804;2023-02-19T07:50:52;15.90;;;10.40;;
33246;SDS011;19606;50.108;19.804;2023-02-19T07:53:18;14.55;;;10.07;;
33246;SDS011;19606;50.108;19.804;2023-02-19T07:55:45;20.33;;;12.55;;
33246;SDS011;19606;50.108;19.804;2023-02-19T07:58:11;17.83;;;11.45;;
33246;SDS011;19606;50.108;19.804;2023-02-19T08:00:36;18.00;;;9.30;;
33246;SDS011;19606;50.108;19.804;2023-02-19T08:03:02;14.10;;;8.40;;
33246;SDS011;19606;50.108;19.804;2023-02-19T08:05:29;14.95;;;10.27;;
33246;SDS011;19606;50.108;19.804;2023-02-19T08:07:56;12.70;;;7.15;;
33246;SDS011;19606;50.108;19.804;2023-02-19T08:10:23;14.98;;;9.70;;
33246;SDS011;19606;50.108;19.804;2023-02-19T08:13:09;14.45;;;9.95;;
33246;SDS011;19606;50.108;19.804;2023-02-19T08:18:20;12.25;;;8.82;;
33246;SDS011;19606;50.108;19.804;2023-02-19T08:20:47;16.20;;;8.68;;
33246;SDS011;19606;50.108;19.804;2023-02-19T08:23:13;8.15;;;5.03;;
33246;SDS011;19606;50.108;19.804;2023-02-19T08:25:39;9.65;;;6.75;;
33246;SDS011;19606;50.108;19.804;2023-02-19T08:28:06;13.07;;;5.97;;
33246;SDS011;19606;50.108;19.804;2023-02-19T08:30:33;7.93;;;5.32;;
33246;SDS011;19606;50.108;19.804;2023-02-19T08:33:00;5.30;;;4.07;;
33246;SDS011;19606;50.108;19.804;2023-02-19T08:35:26;6.95;;;5.55;;
33246;SDS011;19606;50.108;19.804;2023-02-19T08:37:58;9.80;;;5.15;;
33246;SDS011;19606;50.108;19.804;2023-02-19T08:40:24;9.50;;;4.78;;
33246;SDS011;19606;50.108;19.804;2023-02-19T08:42:50;4.35;;;2.83;;
33246;SDS011;19606;50.108;19.804;2023-02-19T08:45:15;5.25;;;4.40;;
33246;SDS011;19606;50.108;19.804;2023-02-19T08:47:41;7.32;;;4.70;;
33246;SDS011;19606;50.108;19.804;2023-02-19T08:50:07;5.45;;;2.92;;
33246;SDS011;19606;50.108;19.804;2023-02-19T08:52:33;6.90;;;4.97;;
33246;SDS011;19606;50.108;19.804;2023-02-19T08:55:00;7.00;;;4.95;;
33246;SDS011;19606;50.108;19.804;2023-02-19T08:57:26;9.20;;;6.57;;
33246;SDS011;19606;50.108;19.804;2023-02-19T08:59:53;12.30;;;8.25;;
33246;SDS011;19606;50.108;19.804;2023-02-19T09:02:20;13.00;;;8.75;;
33246;SDS011;19606;50.108;19.804;2023-02-19T09:04:46;16.02;;;9.00;;
33246;SDS011;19606;50.108;19.804;2023-02-19T09:07:11;15.25;;;7.93;;
33246;SDS011;19606;50.108;19.804;2023-02-19T09:09:37;13.77;;;7.40;;
33246;SDS011;19606;50.108;19.804;2023-02-19T09:12:04;12.13;;;7.72;;
33246;SDS011;19606;50.108;19.804;2023-02-19T09:14:34;14.27;;;9.35;;
33246;SDS011;19606;50.108;19.804;2023-02-19T09:17:01;13.18;;;8.50;;
33246;SDS011;19606;50.108;19.804;2023-02-19T09:19:27;8.30;;;5.75;;
33246;SDS011;19606;50.108;19.804;2023-02-19T09:21:54;11.05;;;6.80;;
33246;SDS011;19606;50.108;19.804;2023-02-19T09:24:20;8.27;;;6.38;;
33246;SDS011;19606;50.108;19.804;2023-02-19T09:26:49;9.80;;;5.20;;
33246;SDS011;19606;50.108;19.804;2023-02-19T09:29:16;15.18;;;8.10;;
33246;SDS011;19606;50.108;19.804;2023-02-19T09:31:41;17.77;;;9.50;;
33246;SDS011;19606;50.108;19.804;2023-02-19T09:34:07;11.07;;;6.95;;
33246;SDS011;19606;50.108;19.804;2023-02-19T09:36:33;3.88;;;2.72;;
33246;SDS011;19606;50.108;19.804;2023-02-19T09:38:59;4.00;;;3.08;;
33246;SDS011;19606;50.108;19.804;2023-02-19T09:41:29;3.30;;;2.15;;
33246;SDS011;19606;50.108;19.804;2023-02-19T09:43:56;3.42;;;2.30;;
33246;SDS011;19606;50.108;19.804;2023-02-19T09:46:27;4.28;;;2.20;;
33246;SDS011;19606;50.108;19.804;2023-02-19T09:48:59;3.42;;;2.20;;
33246;SDS011;19606;50.108;19.804;2023-02-19T09:51:28;2.72;;;2.30;;
33246;SDS011;19606;50.108;19.804;2023-02-19T09:53:57;4.90;;;2.35;;
33246;SDS011;19606;50.108;19.804;2023-02-19T09:56:24;10.25;;;4.32;;
33246;SDS011;19606;50.108;19.804;2023-02-19T09:58:51;17.85;;;7.63;;
33246;SDS011;19606;50.108;19.804;2023-02-19T10:01:18;13.25;;;7.13;;
33246;SDS011;19606;50.108;19.804;2023-02-19T10:03:46;8.15;;;5.05;;
33246;SDS011;19606;50.108;19.804;2023-02-19T10:06:15;9.20;;;5.10;;
33246;SDS011;19606;50.108;19.804;2023-02-19T10:08:48;14.35;;;8.15;;
33246;SDS011;19606;50.108;19.804;2023-02-19T10:11:19;14.93;;;9.38;;
33246;SDS011;19606;50.108;19.804;2023-02-19T10:13:49;9.20;;;4.68;;
33246;SDS011;19606;50.108;19.804;2023-02-19T10:16:39;9.23;;;5.72;;
33246;SDS011;19606;50.108;19.804;2023-02-19T10:19:09;10.50;;;5.65;;
33246;SDS011;19606;50.108;19.804;2023-02-19T10:21:36;10.05;;;5.72;;
33246;SDS011;19606;50.108;19.804;2023-02-19T10:24:03;9.77;;;5.78;;
33246;SDS011;19606;50.108;19.804;2023-02-19T10:26:29;8.93;;;5.65;;
33246;SDS011;19606;50.108;19.804;2023-02-19T10:29:02;8.48;;;5.97;;
33246;SDS011;19606;50.108;19.804;2023-02-19T10:31:31;9.68;;;6.30;;
33246;SDS011;19606;50.108;19.804;2023-02-19T10:33:58;12.40;;;6.97;;
33246;SDS011;19606;50.108;19.804;2023-02-19T10:36:27;15.50;;;7.45;;
33246;SDS011;19606;50.108;19.804;2023-02-19T10:38:57;18.02;;;11.18;;
33246;SDS011;19606;50.108;19.804;2023-02-19T10:41:24;15.48;;;7.13;;
33246;SDS011;19606;50.108;19.804;2023-02-19T10:49:04;7.60;;;3.85;;
33246;SDS011;19606;50.108;19.804;2023-02-19T10:51:42;4.25;;;2.50;;
33246;SDS011;19606;50.108;19.804;2023-02-19T10:56:41;5.45;;;3.40;;
33246;SDS011;19606;50.108;19.804;2023-02-19T10:59:28;8.02;;;4.22;;
33246;SDS011;19606;50.108;19.804;2023-02-19T11:01:57;8.60;;;5.30;;
33246;SDS011;19606;50.108;19.804;2023-02-19T11:04:24;4.25;;;3.13;;
33246;SDS011;19606;50.108;19.804;2023-02-19T11:06:51;4.95;;;3.10;;
33246;SDS011;19606;50.108;19.804;2023-02-19T11:11:52;8.25;;;4.85;;
33246;SDS011;19606;50.108;19.804;2023-02-19T11:14:19;4.60;;;2.53;;
33246;SDS011;19606;50.108;19.804;2023-02-19T11:17:05;5.63;;;3.25;;
33246;SDS011;19606;50.108;19.804;2023-02-19T11:19:41;7.13;;;3.85;;
33246;SDS011;19606;50.108;19.804;2023-02-19T11:22:51;7.70;;;3.55;;
33246;SDS011;19606;50.108;19.804;2023-02-19T11:27:54;5.47;;;2.90;;
33246;SDS011;19606;50.108;19.804;2023-02-19T11:35:41;7.82;;;3.50;;
33246;SDS011;19606;50.108;19.804;2023-02-19T11:38:08;11.00;;;5.28;;
33246;SDS011;19606;50.108;19.804;2023-02-19T11:40:39;10.80;;;5.22;;
33246;SDS011;19606;50.108;19.804;2023-02-19T11:46:33;6.20;;;3.75;;
33246;SDS011;19606;50.108;19.804;2023-02-19T12:11:48;7.03;;;3.33;;
33246;SDS011;19606;50.108;19.804;2023-02-19T12:20:22;2.83;;;2.20;;
33246;SDS011;19606;50.108;19.804;2023-02-19T12:23:31;3.88;;;2.90;;
33246;SDS011;19606;50.108;19.804;2023-02-19T12:45:23;7.53;;;3.78;;
33246;SDS011;19606;50.108;19.804;2023-02-19T12:48:05;4.97;;;3.40;;
33246;SDS011;19606;50.108;19.804;2023-02-19T12:50:38;6.90;;;4.10;;
33246;SDS011;19606;50.108;19.804;2023-02-19T12:55:42;8.98;;;4.03;;
33246;SDS011;19606;50.108;19.804;2023-02-19T12:58:23;7.72;;;4.10;;
33246;SDS011;19606;50.108;19.804;2023-02-19T13:01:22;5.55;;;4.10;;
33246;SDS011;19606;50.108;19.804;2023-02-19T13:04:12;8.65;;;4.50;;
33246;SDS011;19606;50.108;19.804;2023-02-19T13:07:06;9.95;;;5.00;;
33246;SDS011;19606;50.108;19.804;2023-02-19T13:09:35;8.25;;;4.13;;
33246;SDS011;19606;50.108;19.804;2023-02-19T13:12:27;6.93;;;3.53;;
33246;SDS011;19606;50.108;19.804;2023-02-19T13:14:57;10.75;;;3.13;;
33246;SDS011;19606;50.108;19.804;2023-02-19T13:17:46;15.30;;;6.50;;
33246;SDS011;19606;50.108;19.804;2023-02-19T13:20:22;15.48;;;6.47;;
33246;SDS011;19606;50.108;19.804;2023-02-19T13:37:32;9.55;;;5.30;;
33246;SDS011;19606;50.108;19.804;2023-02-19T13:40:00;16.67;;;7.18;;
33246;SDS011;19606;50.108;19.804;2023-02-19T13:45:03;11.77;;;7.03;;
33246;SDS011;19606;50.108;19.804;2023-02-19T13:47:46;11.98;;;5.75;;
33246;SDS011;19606;50.108;19.804;2023-02-19T13:50:26;12.95;;;6.13;;
33246;SDS011;19606;50.108;19.804;2023-02-19T13:52:54;11.93;;;5.53;;
33246;SDS011;19606;50.108;19.804;2023-02-19T14:06:07;20.70;;;9.18;;
33246;SDS011;19606;50.108;19.804;2023-02-19T14:08:52;16.90;;;8.60;;
33246;SDS011;19606;50.108;19.804;2023-02-19T14:14:27;20.55;;;9.40;;
33246;SDS011;19606;50.108;19.804;2023-02-19T14:16:57;17.30;;;9.10;;
33246;SDS011;19606;50.108;19.804;2023-02-19T14:33:29;8.73;;;3.95;;
33246;SDS011;19606;50.108;19.804;2023-02-19T14:38:50;16.92;;;6.20;;
33246;SDS011;19606;50.108;19.804;2023-02-19T14:41:20;13.70;;;6.45;;
33246;SDS011;19606;50.108;19.804;2023-02-19T14:43:49;16.20;;;7.30;;
33246;SDS011;19606;50.108;19.804;2023-02-19T14:48:49;20.30;;;9.25;;
33246;SDS011;19606;50.108;19.804;2023-02-19T14:51:35;18.85;;;7.80;;
33246;SDS011;19606;50.108;19.804;2023-02-19T14:57:04;18.50;;;7.45;;
33246;SDS011;19606;50.108;19.804;2023-02-19T14:59:35;18.75;;;8.02;;
33246;SDS011;19606;50.108;19.804;2023-02-19T15:02:02;12.75;;;5.70;;
33246;SDS011;19606;50.108;19.804;2023-02-19T15:04:37;14.77;;;6.38;;
33246;SDS011;19606;50.108;19.804;2023-02-19T15:07:07;11.57;;;5.43;;
33246;SDS011;19606;50.108;19.804;2023-02-19T15:09:36;15.35;;;7.28;;
33246;SDS011;19606;50.108;19.804;2023-02-19T15:12:12;18.70;;;6.43;;
33246;SDS011;19606;50.108;19.804;2023-02-19T15:14:40;14.75;;;6.10;;
33246;SDS011;19606;50.108;19.804;2023-02-19T15:17:05;16.38;;;6.80;;
33246;SDS011;19606;50.108;19.804;2023-02-19T15:19:32;18.55;;;7.13;;
33246;SDS011;19606;50.108;19.804;2023-02-19T15:22:00;7.68;;;3.60;;
33246;SDS011;19606;50.108;19.804;2023-02-19T15:24:27;15.15;;;6.45;;
33246;SDS011;19606;50.108;19.804;2023-02-19T15:26:53;19.05;;;8.02;;
33246;SDS011;19606;50.108;19.804;2023-02-19T15:29:21;16.23;;;8.38;;
33246;SDS011;19606;50.108;19.804;2023-02-19T15:31:58;13.88;;;7.30;;
33246;SDS011;19606;50.108;19.804;2023-02-19T15:34:26;20.92;;;8.68;;
33246;SDS011;19606;50.108;19.804;2023-02-19T15:36:56;19.55;;;10.25;;
33246;SDS011;19606;50.108;19.804;2023-02-19T15:42:02;21.15;;;8.30;;
33246;SDS011;19606;50.108;19.804;2023-02-19T15:44:50;15.35;;;8.50;;
33246;SDS011;19606;50.108;19.804;2023-02-19T15:52:23;16.42;;;7.32;;
33246;SDS011;19606;50.108;19.804;2023-02-19T15:58:07;17.60;;;6.90;;
33246;SDS011;19606;50.108;19.804;2023-02-19T16:00:38;16.85;;;8.73;;
33246;SDS011;19606;50.108;19.804;2023-02-19T16:03:12;15.23;;;6.78;;
33246;SDS011;19606;50.108;19.804;2023-02-19T16:05:42;19.33;;;6.75;;
33246;SDS011;19606;50.108;19.804;2023-02-19T16:10:36;20.40;;;9.18;;
33246;SDS011;19606;50.108;19.804;2023-02-19T16:13:03;21.95;;;8.82;;
33246;SDS011;19606;50.108;19.804;2023-02-19T16:15:32;18.05;;;7.75;;
33246;SDS011;19606;50.108;19.804;2023-02-19T16:17:58;19.00;;;7.53;;
33246;SDS011;19606;50.108;19.804;2023-02-19T16:20:26;19.73;;;8.77;;
33246;SDS011;19606;50.108;19.804;2023-02-19T16:22:58;17.52;;;7.65;;
33246;SDS011;19606;50.108;19.804;2023-02-19T16:25:37;18.95;;;7.50;;
33246;SDS011;19606;50.108;19.804;2023-02-19T16:30:37;16.50;;;7.20;;
33246;SDS011;19606;50.108;19.804;2023-02-19T16:35:51;11.57;;;5.03;;
33246;SDS011;19606;50.108;19.804;2023-02-19T16:38:18;14.73;;;5.97;;
33246;SDS011;19606;50.108;19.804;2023-02-19T16:43:30;18.20;;;6.28;;
33246;SDS011;19606;50.108;19.804;2023-02-19T16:46:07;11.60;;;5.45;;
33246;SDS011;19606;50.108;19.804;2023-02-19T16:48:34;17.85;;;7.60;;
33246;SDS011;19606;50.108;19.804;2023-02-19T16:51:00;12.35;;;6.57;;
33246;SDS011;19606;50.108;19.804;2023-02-19T16:53:28;15.77;;;5.78;;
33246;SDS011;19606;50.108;19.804;2023-02-19T16:55:59;21.77;;;7.70;;
33246;SDS011;19606;50.108;19.804;2023-02-19T16:58:25;26.38;;;8.15;;
33246;SDS011;19606;50.108;19.804;2023-02-19T17:00:51;22.42;;;8.75;;
33246;SDS011;19606;50.108;19.804;2023-02-19T17:03:18;20.02;;;6.57;;
33246;SDS011;19606;50.108;19.804;2023-02-19T17:05:46;20.52;;;6.50;;
33246;SDS011;19606;50.108;19.804;2023-02-19T17:08:24;20.77;;;9.27;;
33246;SDS011;19606;50.108;19.804;2023-02-19T17:11:03;16.05;;;7.13;;
33246;SDS011;19606;50.108;19.804;2023-02-19T17:13:30;11.63;;;6.03;;
33246;SDS011;19606;50.108;19.804;2023-02-19T17:15:56;13.52;;;6.70;;
33246;SDS011;19606;50.108;19.804;2023-02-19T17:18:23;22.55;;;7.32;;
33246;SDS011;19606;50.108;19.804;2023-02-19T17:20:49;16.88;;;5.55;;
33246;SDS011;19606;50.108;19.804;2023-02-19T17:23:43;17.92;;;7.28;;
33246;SDS011;19606;50.108;19.804;2023-02-19T17:26:11;11.18;;;5.30;;
33246;SDS011;19606;50.108;19.804;2023-02-19T17:28:42;22.20;;;8.23;;
33246;SDS011;19606;50.108;19.804;2023-02-19T17:31:11;20.92;;;9.23;;
33246;SDS011;19606;50.108;19.804;2023-02-19T17:33:38;24.50;;;9.15;;
33246;SDS011;19606;50.108;19.804;2023-02-19T17:36:04;13.75;;;6.20;;
33246;SDS011;19606;50.108;19.804;2023-02-19T17:38:30;22.38;;;7.45;;
33246;SDS011;19606;50.108;19.804;2023-02-19T17:40:56;17.70;;;8.50;;
33246;SDS011;19606;50.108;19.804;2023-02-19T17:43:22;17.30;;;8.27;;
33246;SDS011;19606;50.108;19.804;2023-02-19T17:45:48;19.42;;;6.53;;
33246;SDS011;19606;50.108;19.804;2023-02-19T17:48:14;21.75;;;9.38;;
33246;SDS011;19606;50.108;19.804;2023-02-19T17:50:41;23.80;;;9.32;;
33246;SDS011;19606;50.108;19.804;2023-02-19T17:53:07;22.35;;;8.02;;
33246;SDS011;19606;50.108;19.804;2023-02-19T17:55:33;25.17;;;9.27;;
33246;SDS011;19606;50.108;19.804;2023-02-19T17:57:59;13.75;;;7.57;;